aviador You're here:

KCBE Decoded Metar

CUMBERLAND REG in MD, USA
Report Time2018-01-18 21:17:00
UTC Time2018-01-18 21:43:30
Flight Rules vfr VFR
Wind330° at 10 Gusting to 16 kt
W.Decomp.*RWY 29: 6.4 kt HW 7.7 kt RCW
RWY 05: 3.4 kt HW 9.4 kt LCW
W.Rank330° ranks 2
Current wind is above 330° avg. (6.7)
Visibility9999 m
Phenomena:N/A
Clouds:N/A
Expected CloudBase > 7,200 ft AGL from Temp-Dew spread
CeilingNone
Temp04°C (ISA -9)
Dew Point-14°C (26% RH)
AAT-2.9°C
QNH1019 hPa
Density Alt-541 ft
Elevation774 ft
Report Wrong Elevation
Raw Report
KCBE 182117Z AUTO 33010G16KT 10SM CLR 04/M14 A3010 RMK AO1=

Extra information for KCBE:More info

Metar Taf Metar & Taf Last 4 Metars F.Rules Stats Wind Profile Meteogram Temp Stats Airport Information Weather charts Add Link Nearby VenuesMetar ALERT Operation Metar Decoded Social comments

AIRNAV info for KCBE